createdAt,value
2022-08-11T00:02:32.565Z,3.80
2022-08-11T00:05:08.608Z,99.90
2022-08-11T00:07:44.993Z,99.90
2022-08-11T00:10:15.785Z,57.80
2022-08-11T00:12:51.926Z,1.00
2022-08-11T00:15:21.717Z,1.00
2022-08-11T00:17:52.085Z,99.90
2022-08-11T00:20:21.983Z,1.00
2022-08-11T00:22:52.549Z,99.90
2022-08-11T00:25:23.505Z,1.00
2022-08-11T00:27:54.069Z,1.00
2022-08-11T00:30:23.413Z,99.90
2022-08-11T00:32:59.085Z,1.00
2022-08-11T00:35:51.366Z,99.90
2022-08-11T00:38:26.951Z,99.90
2022-08-11T00:41:02.454Z,1.00
2022-08-11T00:43:57.321Z,99.90
2022-08-11T00:46:36.736Z,1.00
2022-08-11T00:49:17.718Z,1.00
2022-08-11T00:52:05.812Z,1.00
2022-08-11T00:55:04.304Z,99.90
2022-08-11T00:58:03.925Z,1.00
2022-08-11T01:00:59.266Z,1.00
2022-08-11T01:03:49.567Z,99.90
2022-08-11T01:06:40.023Z,99.90
2022-08-11T01:09:30.337Z,67.40
2022-08-11T01:12:33.188Z,1.00
2022-08-11T01:15:57.399Z,99.90
2022-08-11T01:19:17.337Z,99.90
2022-08-11T01:22:44.580Z,99.90
2022-08-11T01:25:56.713Z,99.90
2022-08-11T01:29:07.283Z,99.90
2022-08-11T01:32:13.590Z,99.90
2022-08-11T01:35:27.354Z,99.90
2022-08-11T01:38:27.555Z,47.30
2022-08-11T01:41:24.415Z,1.00
2022-08-11T01:44:32.469Z,1.00
2022-08-11T01:47:36.923Z,99.90
2022-08-11T01:50:19.164Z,1.00
2022-08-11T01:53:07.167Z,99.90
2022-08-11T01:55:46.563Z,99.90
2022-08-11T01:58:34.286Z,99.90
2022-08-11T02:01:33.259Z,99.90
2022-08-11T02:04:20.537Z,99.90
2022-08-11T02:07:01.000Z,99.90
2022-08-11T02:09:55.232Z,99.90
2022-08-11T02:12:43.039Z,1.00
2022-08-11T02:15:35.309Z,99.90
2022-08-11T02:18:16.699Z,1.00
2022-08-11T02:21:11.790Z,1.00
2022-08-11T02:24:05.955Z,99.90
2022-08-11T02:26:44.523Z,1.00
2022-08-11T02:29:24.353Z,99.90
2022-08-11T02:32:30.016Z,99.90
2022-08-11T02:38:00.984Z,99.90
2022-08-11T02:40:46.846Z,99.90
2022-08-11T02:43:31.126Z,1.00
2022-08-11T02:46:20.704Z,73.50
2022-08-11T02:49:15.836Z,1.00
2022-08-11T02:52:00.732Z,1.00
2022-08-11T02:54:38.478Z,1.00
2022-08-11T02:57:21.261Z,1.00
2022-08-11T02:59:58.685Z,99.90
2022-08-11T03:02:55.413Z,1.00
2022-08-11T03:05:35.872Z,1.00
2022-08-11T03:08:19.012Z,99.90
2022-08-11T03:11:19.306Z,92.50
2022-08-11T03:14:18.962Z,99.90
2022-08-11T03:16:58.247Z,99.90
2022-08-11T03:19:36.502Z,99.90
2022-08-11T03:22:14.612Z,99.90
2022-08-11T03:24:55.598Z,99.90
2022-08-11T03:27:37.057Z,99.90
2022-08-11T03:30:15.109Z,1.00
2022-08-11T03:33:17.295Z,99.90
2022-08-11T03:35:56.347Z,1.00
2022-08-11T03:38:30.416Z,99.90
2022-08-11T03:42:02.060Z,99.90
2022-08-11T03:44:39.514Z,99.90
2022-08-11T03:47:26.423Z,25.70
2022-08-11T03:50:05.096Z,1.00
2022-08-11T03:52:49.491Z,99.90
2022-08-11T03:55:34.099Z,1.00
2022-08-11T03:58:41.986Z,99.90
2022-08-11T04:01:56.843Z,99.90
2022-08-11T04:05:14.810Z,1.00
2022-08-11T04:08:34.254Z,99.90
2022-08-11T04:11:25.614Z,1.00
2022-08-11T04:15:02.386Z,1.00
2022-08-11T04:18:22.378Z,1.00
2022-08-11T04:21:13.096Z,99.90
2022-08-11T04:24:38.731Z,99.90
2022-08-11T04:27:43.488Z,1.00
2022-08-11T04:30:17.601Z,99.90
2022-08-11T04:33:35.228Z,86.70
2022-08-11T04:36:50.057Z,99.90
2022-08-11T04:39:35.552Z,1.00
2022-08-11T04:42:52.428Z,30.90
2022-08-11T04:45:46.732Z,99.90
2022-08-11T04:48:57.898Z,1.00
2022-08-11T04:52:06.062Z,99.90
2022-08-11T04:55:12.422Z,1.00
2022-08-11T04:58:10.858Z,99.90
2022-08-11T05:01:08.141Z,1.00
2022-08-11T05:04:05.347Z,1.00
2022-08-11T05:07:07.250Z,1.00
2022-08-11T05:09:49.255Z,99.90
2022-08-11T05:12:31.528Z,1.00
2022-08-11T05:15:19.072Z,99.90
2022-08-11T05:18:16.379Z,1.00
2022-08-11T05:21:08.157Z,1.00
2022-08-11T05:24:02.080Z,1.00
2022-08-11T05:26:57.087Z,99.90
2022-08-11T05:29:47.741Z,1.00
2022-08-11T05:32:36.358Z,1.00
2022-08-11T05:35:08.895Z,1.00
2022-08-11T05:38:02.136Z,45.50
2022-08-11T05:40:53.322Z,55.90
2022-08-11T05:44:21.755Z,51.90
2022-08-11T05:46:59.796Z,77.20
2022-08-11T05:49:49.732Z,77.00
2022-08-11T05:52:41.810Z,91.30
2022-08-11T05:55:30.073Z,96.40
2022-08-11T05:58:03.530Z,94.70
2022-08-11T06:00:34.127Z,95.20
2022-08-11T06:03:07.711Z,96.10
2022-08-11T06:05:43.413Z,94.40
2022-08-11T06:08:15.292Z,90.30
2022-08-11T06:10:46.972Z,84.60
2022-08-11T06:13:19.703Z,92.40
2022-08-11T06:15:52.201Z,82.10
2022-08-11T06:18:22.318Z,77.70
2022-08-11T06:20:54.414Z,50.90
2022-08-11T06:23:25.456Z,50.00
2022-08-11T06:25:56.373Z,36.80
2022-08-11T06:28:34.271Z,29.30
2022-08-11T06:31:12.978Z,28.90
2022-08-11T06:33:55.655Z,30.00
2022-08-11T06:36:34.608Z,33.70
2022-08-11T06:39:14.842Z,36.50
2022-08-11T06:41:50.206Z,38.20
2022-08-11T06:44:27.402Z,35.80
2022-08-11T06:47:01.371Z,31.40
2022-08-11T06:49:56.131Z,30.00
2022-08-11T06:52:35.674Z,23.70
2022-08-11T06:55:57.562Z,22.50
2022-08-11T06:58:47.733Z,23.90
2022-08-11T07:01:26.415Z,24.70
2022-08-11T07:04:05.843Z,21.20
2022-08-11T07:07:18.214Z,19.60
2022-08-11T07:10:45.653Z,17.50
2022-08-11T07:13:44.359Z,18.00
2022-08-11T07:16:24.331Z,14.10
2022-08-11T07:19:18.345Z,14.80
2022-08-11T07:22:06.733Z,12.20
2022-08-11T07:25:02.645Z,10.60
2022-08-11T07:28:00.304Z,11.90
2022-08-11T07:30:30.277Z,12.30
2022-08-11T07:33:04.112Z,12.70
2022-08-11T07:35:36.352Z,14.50
2022-08-11T07:38:09.419Z,14.70
2022-08-11T07:40:39.934Z,17.50
2022-08-11T07:43:09.973Z,13.50
2022-08-11T07:46:02.248Z,12.10
2022-08-11T07:48:52.037Z,10.90
2022-08-11T07:51:39.671Z,12.00
2022-08-11T07:54:17.145Z,12.20
2022-08-11T07:57:07.418Z,13.70
2022-08-11T08:00:03.838Z,10.10
2022-08-11T08:03:04.224Z,8.00
2022-08-11T08:05:53.536Z,8.80
2022-08-11T08:08:41.213Z,6.50
2022-08-11T08:11:29.017Z,8.00
2022-08-11T08:14:16.824Z,11.10
2022-08-11T08:17:04.838Z,10.90
2022-08-11T08:19:35.402Z,9.90
2022-08-11T08:22:38.271Z,11.30
2022-08-11T08:24:57.946Z,10.60
2022-08-11T08:27:28.656Z,9.70
2022-08-11T08:30:19.549Z,7.00
2022-08-11T08:32:49.641Z,7.50
2022-08-11T08:35:20.028Z,9.00
2022-08-11T08:37:52.974Z,6.90
2022-08-11T08:40:22.411Z,7.60
2022-08-11T08:42:56.706Z,7.70
2022-08-11T08:45:27.677Z,7.00
2022-08-11T08:48:02.035Z,6.00
2022-08-11T08:50:55.084Z,7.40
2022-08-11T08:53:32.295Z,6.10
2022-08-11T08:56:03.673Z,6.90
2022-08-11T08:58:35.252Z,6.40
2022-08-11T09:01:05.431Z,6.10
2022-08-11T09:04:05.385Z,3.90
2022-08-11T09:06:31.830Z,4.20
2022-08-11T09:09:03.179Z,4.60
2022-08-11T09:11:50.268Z,2.90
2022-08-11T09:14:20.511Z,3.20
2022-08-11T09:16:51.313Z,3.60
2022-08-11T09:19:23.001Z,4.10
2022-08-11T09:22:13.932Z,4.10
2022-08-11T09:25:02.334Z,2.80
2022-08-11T09:27:31.706Z,1.00
2022-08-11T09:30:01.352Z,1.00
2022-08-11T09:32:31.862Z,1.00
2022-08-11T09:35:03.234Z,1.00
2022-08-11T09:37:55.934Z,1.00
2022-08-11T09:40:30.862Z,1.00
2022-08-11T09:43:18.738Z,1.00
2022-08-11T09:45:52.377Z,1.00
2022-08-11T09:48:24.488Z,2.00
2022-08-11T09:50:56.411Z,2.70
2022-08-11T09:53:35.702Z,1.00
2022-08-11T09:56:31.678Z,1.00
2022-08-11T09:59:04.113Z,1.00
2022-08-11T10:01:38.133Z,1.10
2022-08-11T10:04:15.562Z,1.00
2022-08-11T10:07:04.577Z,1.00
2022-08-11T10:09:42.389Z,1.00
2022-08-11T10:12:16.303Z,1.00
2022-08-11T10:15:05.833Z,1.00
2022-08-11T10:18:01.036Z,1.00
2022-08-11T10:20:32.707Z,3.00
2022-08-11T10:23:22.338Z,3.20
2022-08-11T10:26:10.098Z,1.20
2022-08-11T10:29:02.521Z,2.20
2022-08-11T10:31:57.579Z,4.30
2022-08-11T10:34:29.812Z,6.30
2022-08-11T10:37:03.498Z,6.60
2022-08-11T10:39:33.434Z,7.00
2022-08-11T10:42:35.344Z,5.90
2022-08-11T10:45:26.693Z,3.40
2022-08-11T10:47:57.589Z,1.30
2022-08-11T10:50:50.337Z,1.00
2022-08-11T10:53:38.905Z,1.00
2022-08-11T10:56:26.830Z,1.00
2022-08-11T10:59:02.098Z,1.00
2022-08-11T11:01:39.304Z,1.00
2022-08-11T11:04:12.127Z,1.00
2022-08-11T11:06:52.217Z,1.00
2022-08-11T11:09:26.196Z,1.00
2022-08-11T11:12:15.949Z,1.00
2022-08-11T11:15:06.748Z,1.00
2022-08-11T11:18:04.940Z,1.00
2022-08-11T11:20:45.068Z,1.00
2022-08-11T11:23:20.405Z,1.00
2022-08-11T11:26:14.787Z,1.00
2022-08-11T11:29:25.332Z,1.00
2022-08-11T11:32:11.173Z,1.00
2022-08-11T11:35:12.971Z,1.00
2022-08-11T11:37:56.101Z,1.00
2022-08-11T11:40:34.423Z,1.00
2022-08-11T11:43:04.021Z,1.00
2022-08-11T11:45:33.872Z,1.00
2022-08-11T11:48:04.093Z,1.00
2022-08-11T11:50:37.338Z,1.00
2022-08-11T11:53:11.658Z,1.00
2022-08-11T11:55:45.717Z,1.00
2022-08-11T11:58:33.409Z,1.00
2022-08-11T12:01:19.303Z,1.00
2022-08-11T12:03:52.059Z,1.00
2022-08-11T12:06:27.896Z,1.00
2022-08-11T12:09:00.451Z,1.00
2022-08-11T12:11:49.383Z,1.00
2022-08-11T12:14:21.035Z,1.00
2022-08-11T12:16:51.566Z,1.00
2022-08-11T12:19:25.203Z,1.00
2022-08-11T12:22:14.972Z,1.00
2022-08-11T12:25:02.209Z,1.00
2022-08-11T12:27:32.907Z,1.00
2022-08-11T12:30:08.679Z,1.00
2022-08-11T12:32:39.223Z,1.00
2022-08-11T12:35:09.817Z,1.00
2022-08-11T12:37:43.886Z,1.00
2022-08-11T12:41:13.751Z,1.00
2022-08-11T12:43:56.620Z,1.00
2022-08-11T12:46:32.182Z,1.00
2022-08-11T12:49:24.413Z,1.00
2022-08-11T12:52:13.506Z,1.00
2022-08-11T12:54:57.979Z,1.00
2022-08-11T12:57:54.808Z,1.00
2022-08-11T13:00:42.578Z,1.00
2022-08-11T13:03:32.740Z,1.00
2022-08-11T13:06:04.077Z,1.00
2022-08-11T13:08:37.086Z,1.00
2022-08-11T13:11:55.682Z,1.00
2022-08-11T13:14:17.105Z,1.00
2022-08-11T13:17:04.641Z,1.00
2022-08-11T13:19:35.142Z,1.00
2022-08-11T13:22:05.453Z,1.00
2022-08-11T13:24:35.647Z,1.00
2022-08-11T13:27:06.953Z,1.00
2022-08-11T13:29:37.410Z,1.00
2022-08-11T13:32:07.131Z,1.00
2022-08-11T13:34:41.922Z,1.00
2022-08-11T13:37:19.819Z,1.00
2022-08-11T13:40:11.006Z,1.00
2022-08-11T13:42:45.677Z,1.00
2022-08-11T13:45:16.172Z,1.00
2022-08-11T13:47:47.255Z,1.00
2022-08-11T13:50:17.669Z,1.00
2022-08-11T13:52:53.136Z,1.00
2022-08-11T13:55:45.087Z,1.00
2022-08-11T13:58:19.332Z,1.00
2022-08-11T14:02:04.023Z,1.00
2022-08-11T14:04:31.118Z,1.00
2022-08-11T14:07:01.041Z,1.00
2022-08-11T14:09:35.292Z,1.00
2022-08-11T14:12:28.963Z,1.00
2022-08-11T14:15:09.301Z,1.00
2022-08-11T14:17:48.891Z,1.00
2022-08-11T14:20:39.565Z,1.00
2022-08-11T14:23:14.339Z,1.00
2022-08-11T14:26:04.174Z,1.00
2022-08-11T14:28:40.250Z,1.00
2022-08-11T14:31:16.168Z,1.00
2022-08-11T14:33:59.368Z,1.00
2022-08-11T14:36:34.235Z,1.00
2022-08-11T14:39:07.279Z,1.00
2022-08-11T14:42:10.802Z,1.00
2022-08-11T14:45:03.438Z,1.00
2022-08-11T14:47:36.441Z,1.00
2022-08-11T14:50:11.800Z,1.00
2022-08-11T14:52:49.044Z,1.00
2022-08-11T14:55:36.639Z,1.00
2022-08-11T14:58:06.791Z,1.00
2022-08-11T15:00:37.152Z,1.00
2022-08-11T15:03:11.406Z,1.00
2022-08-11T15:05:56.194Z,1.00
2022-08-11T15:08:47.901Z,1.00
2022-08-11T15:11:36.423Z,1.00
2022-08-11T15:14:08.326Z,1.00
2022-08-11T15:16:56.520Z,1.00
2022-08-11T15:19:40.173Z,1.00
2022-08-11T15:22:29.311Z,1.00
2022-08-11T15:25:00.540Z,1.00
2022-08-11T15:27:51.712Z,1.00
2022-08-11T15:30:40.422Z,1.00
2022-08-11T15:33:29.918Z,1.00
2022-08-11T15:36:21.738Z,1.00
2022-08-11T15:38:55.780Z,1.00
2022-08-11T15:41:58.267Z,1.00
2022-08-11T15:45:03.481Z,1.00
2022-08-11T15:47:41.488Z,1.00
2022-08-11T15:50:16.384Z,1.00
2022-08-11T15:52:57.759Z,1.00
2022-08-11T15:55:27.721Z,1.00
2022-08-11T15:58:15.861Z,1.00
2022-08-11T16:01:09.080Z,1.00
2022-08-11T16:04:07.602Z,1.00
2022-08-11T16:06:46.316Z,1.00
2022-08-11T16:09:24.504Z,1.00
2022-08-11T16:11:58.419Z,1.00
2022-08-11T16:14:47.441Z,1.00
2022-08-11T16:17:19.333Z,1.00
2022-08-11T16:19:53.133Z,1.00
2022-08-11T16:22:33.212Z,1.00
2022-08-11T16:27:01.507Z,1.00
2022-08-11T16:27:59.766Z,1.00
2022-08-11T16:30:32.198Z,1.00
2022-08-11T16:33:48.953Z,1.00
2022-08-11T16:36:13.616Z,1.00
2022-08-11T16:38:44.720Z,1.00
2022-08-11T16:41:38.794Z,1.00
2022-08-11T16:44:37.016Z,1.00
2022-08-11T16:47:09.509Z,1.00
2022-08-11T16:49:43.430Z,1.00
2022-08-11T16:52:13.535Z,1.00
2022-08-11T16:54:44.522Z,1.50
2022-08-11T16:57:37.030Z,2.00
2022-08-11T17:00:09.067Z,2.90
2022-08-11T17:03:01.759Z,3.60
2022-08-11T17:05:54.270Z,4.60
2022-08-11T17:08:57.112Z,4.70
2022-08-11T17:11:46.929Z,5.20
2022-08-11T17:14:35.292Z,6.10
2022-08-11T17:17:07.514Z,7.00
2022-08-11T17:20:40.370Z,7.60
2022-08-11T17:22:47.163Z,8.40
2022-08-11T17:25:18.580Z,9.80
2022-08-11T17:27:50.281Z,10.90
2022-08-11T17:30:21.323Z,13.00
2022-08-11T17:33:10.463Z,14.40
2022-08-11T17:35:44.782Z,15.70
2022-08-11T17:38:16.610Z,17.30
2022-08-11T17:41:02.400Z,18.80
2022-08-11T17:43:50.016Z,19.80
2022-08-11T17:46:38.917Z,21.50
2022-08-11T17:49:10.112Z,22.90
2022-08-11T17:52:00.141Z,25.90
2022-08-11T17:54:47.294Z,28.50
2022-08-11T17:57:36.173Z,32.10
2022-08-11T18:00:08.231Z,35.80
2022-08-11T18:03:06.697Z,38.50
2022-08-11T18:05:38.179Z,41.10
2022-08-11T18:08:28.356Z,42.80
2022-08-11T18:11:17.561Z,44.80
2022-08-11T18:14:26.580Z,49.30
2022-08-11T18:17:13.617Z,51.00
2022-08-11T18:20:02.223Z,54.30
2022-08-11T18:22:54.977Z,60.40
2022-08-11T18:25:46.270Z,71.00
2022-08-11T18:28:36.204Z,74.10
2022-08-11T18:31:25.042Z,78.30
2022-08-11T18:34:13.223Z,80.20
2022-08-11T18:37:07.863Z,83.10
2022-08-11T18:40:01.498Z,85.90
2022-08-11T18:42:50.558Z,88.70
2022-08-11T18:45:45.277Z,92.00
2022-08-11T18:48:39.568Z,93.90
2022-08-11T18:51:36.078Z,95.40
2022-08-11T18:54:28.485Z,96.80
2022-08-11T18:57:19.889Z,97.40
2022-08-11T19:00:08.778Z,98.70
2022-08-11T19:02:58.110Z,99.10
2022-08-11T19:06:32.422Z,99.90
2022-08-11T19:08:59.011Z,99.90
2022-08-11T19:11:49.661Z,99.90
2022-08-11T19:14:37.916Z,99.90
2022-08-11T19:17:44.854Z,99.90
2022-08-11T19:20:36.072Z,99.90
2022-08-11T19:23:25.599Z,99.90
2022-08-11T19:26:12.772Z,99.90
2022-08-11T19:29:03.237Z,99.90
2022-08-11T19:31:51.043Z,99.90
2022-08-11T19:34:39.576Z,99.90
2022-08-11T19:37:27.966Z,99.90
2022-08-11T19:40:18.284Z,99.90
2022-08-11T19:43:14.842Z,99.90
2022-08-11T19:46:18.782Z,99.90
2022-08-11T19:49:08.613Z,99.00
2022-08-11T19:51:56.420Z,98.70
2022-08-11T19:54:45.484Z,99.00
2022-08-11T19:57:39.253Z,99.60
2022-08-11T20:00:31.037Z,99.90
2022-08-11T20:03:22.329Z,99.90
2022-08-11T20:06:10.032Z,99.90
2022-08-11T20:09:00.723Z,98.40
2022-08-11T20:11:49.178Z,98.00
2022-08-11T20:14:37.318Z,98.30
2022-08-11T20:17:25.466Z,97.40
2022-08-11T20:20:14.470Z,97.10
2022-08-11T20:23:02.635Z,96.80
2022-08-11T20:25:53.153Z,97.00
2022-08-11T20:28:43.775Z,97.30
2022-08-11T20:31:31.717Z,97.80
2022-08-11T20:34:20.576Z,98.50
2022-08-11T20:37:09.759Z,99.60
2022-08-11T20:39:57.882Z,99.90
2022-08-11T20:42:47.382Z,99.90
2022-08-11T20:45:35.346Z,99.90
2022-08-11T20:48:23.457Z,99.90
2022-08-11T20:51:11.711Z,99.90
2022-08-11T20:54:06.485Z,99.90
2022-08-11T20:56:55.269Z,99.90
2022-08-11T20:59:56.745Z,99.90
2022-08-11T21:02:45.042Z,99.90
2022-08-11T21:06:08.677Z,99.90
2022-08-11T21:08:41.833Z,99.90
2022-08-11T21:11:33.324Z,99.90
2022-08-11T21:14:22.828Z,99.90
2022-08-11T21:17:27.915Z,99.90
2022-08-11T21:20:21.136Z,99.90
2022-08-11T21:23:19.834Z,99.90
2022-08-11T21:26:14.971Z,99.90
2022-08-11T21:29:04.333Z,99.90
2022-08-11T21:31:53.028Z,99.90
2022-08-11T21:34:41.090Z,99.90
2022-08-11T21:37:28.963Z,99.90
2022-08-11T21:40:19.234Z,11.20
2022-08-11T21:43:08.790Z,1.00
2022-08-11T21:45:58.481Z,1.00
2022-08-11T21:48:46.610Z,1.00
2022-08-11T21:51:33.287Z,1.00
2022-08-11T21:54:20.683Z,99.90
2022-08-11T21:57:07.793Z,1.00
2022-08-11T22:00:03.097Z,1.00
2022-08-11T22:03:00.415Z,1.00
2022-08-11T22:05:48.206Z,1.00
2022-08-11T22:08:35.647Z,1.00
2022-08-11T22:11:31.896Z,1.00
2022-08-11T22:14:19.756Z,1.00
2022-08-11T22:17:06.361Z,1.00
2022-08-11T22:19:56.748Z,1.00
2022-08-11T22:22:51.213Z,1.00
2022-08-11T22:25:51.464Z,1.00
2022-08-11T22:28:41.565Z,1.00
2022-08-11T22:31:30.072Z,1.00
2022-08-11T22:34:16.774Z,1.00
2022-08-11T22:37:07.078Z,1.00
2022-08-11T22:40:01.946Z,1.00
2022-08-11T22:42:50.513Z,1.00
2022-08-11T22:45:36.971Z,1.00
2022-08-11T22:48:24.524Z,1.00
2022-08-11T22:51:12.591Z,1.00
2022-08-11T22:54:00.566Z,1.00
2022-08-11T22:56:48.865Z,1.00
2022-08-11T22:59:36.871Z,1.00
2022-08-11T23:02:24.913Z,1.00
2022-08-11T23:05:11.580Z,1.00
2022-08-11T23:07:59.414Z,1.00
2022-08-11T23:10:48.730Z,1.00
2022-08-11T23:13:35.523Z,1.00
2022-08-11T23:16:22.981Z,1.00
2022-08-11T23:19:09.733Z,99.90
2022-08-11T23:21:56.842Z,1.00
2022-08-11T23:24:44.269Z,99.90
2022-08-11T23:27:33.927Z,25.50
2022-08-11T23:30:21.478Z,53.50
2022-08-11T23:33:11.552Z,99.90
2022-08-11T23:36:04.411Z,99.90
2022-08-11T23:38:52.352Z,1.00
2022-08-11T23:41:40.282Z,99.90
2022-08-11T23:44:28.554Z,99.90
2022-08-11T23:47:20.357Z,99.90
2022-08-11T23:50:07.115Z,99.90
2022-08-11T23:52:54.435Z,1.00
2022-08-11T23:55:41.075Z,1.00
2022-08-11T23:58:28.545Z,1.00
